sensor_id;sensor_type;location;lat;lon;timestamp;P1;durP1;ratioP1;P2;durP2;ratioP2
665;SDS011;315;48.738;9.126;2024-03-02T00:00:20;13.33;;;11.67;;
665;SDS011;315;48.738;9.126;2024-03-02T00:02:47;12.90;;;11.20;;
665;SDS011;315;48.738;9.126;2024-03-02T00:05:18;13.90;;;11.10;;
665;SDS011;315;48.738;9.126;2024-03-02T00:07:54;12.20;;;11.00;;
665;SDS011;315;48.738;9.126;2024-03-02T00:10:29;14.53;;;11.00;;
665;SDS011;315;48.738;9.126;2024-03-02T00:13:02;16.53;;;11.47;;
665;SDS011;315;48.738;9.126;2024-03-02T00:18:11;12.80;;;11.60;;
665;SDS011;315;48.738;9.126;2024-03-02T00:20:39;12.47;;;10.53;;
665;SDS011;315;48.738;9.126;2024-03-02T00:23:08;13.20;;;10.90;;
665;SDS011;315;48.738;9.126;2024-03-02T00:28:13;14.23;;;11.97;;
665;SDS011;315;48.738;9.126;2024-03-02T00:30:54;15.70;;;12.53;;
665;SDS011;315;48.738;9.126;2024-03-02T00:33:26;18.03;;;10.60;;
665;SDS011;315;48.738;9.126;2024-03-02T00:35:55;15.10;;;12.40;;
665;SDS011;315;48.738;9.126;2024-03-02T00:38:21;15.93;;;13.20;;
665;SDS011;315;48.738;9.126;2024-03-02T00:40:47;13.23;;;10.83;;
665;SDS011;315;48.738;9.126;2024-03-02T00:43:37;13.77;;;12.30;;
665;SDS011;315;48.738;9.126;2024-03-02T00:46:18;13.73;;;11.57;;
665;SDS011;315;48.738;9.126;2024-03-02T00:48:54;13.27;;;11.57;;
665;SDS011;315;48.738;9.126;2024-03-02T00:51:21;12.90;;;11.50;;
665;SDS011;315;48.738;9.126;2024-03-02T00:53:48;13.47;;;12.07;;
665;SDS011;315;48.738;9.126;2024-03-02T00:56:14;11.30;;;10.20;;
665;SDS011;315;48.738;9.126;2024-03-02T00:58:40;13.77;;;12.33;;
665;SDS011;315;48.738;9.126;2024-03-02T01:01:05;13.30;;;10.70;;
665;SDS011;315;48.738;9.126;2024-03-02T01:03:32;11.43;;;10.20;;
665;SDS011;315;48.738;9.126;2024-03-02T01:05:58;14.80;;;9.83;;
665;SDS011;315;48.738;9.126;2024-03-02T01:08:24;12.70;;;10.33;;
665;SDS011;315;48.738;9.126;2024-03-02T01:10:50;14.23;;;11.17;;
665;SDS011;315;48.738;9.126;2024-03-02T01:13:15;16.30;;;11.83;;
665;SDS011;315;48.738;9.126;2024-03-02T01:15:41;13.50;;;9.90;;
665;SDS011;315;48.738;9.126;2024-03-02T01:18:06;14.10;;;10.27;;
665;SDS011;315;48.738;9.126;2024-03-02T01:20:32;12.30;;;9.83;;
665;SDS011;315;48.738;9.126;2024-03-02T01:22:58;12.63;;;10.87;;
665;SDS011;315;48.738;9.126;2024-03-02T01:25:23;13.43;;;11.00;;
665;SDS011;315;48.738;9.126;2024-03-02T01:27:49;15.63;;;12.10;;
665;SDS011;315;48.738;9.126;2024-03-02T01:30:15;12.57;;;10.83;;
665;SDS011;315;48.738;9.126;2024-03-02T01:32:41;12.13;;;10.77;;
665;SDS011;315;48.738;9.126;2024-03-02T01:35:06;12.50;;;10.23;;
665;SDS011;315;48.738;9.126;2024-03-02T01:37:32;13.83;;;11.33;;
665;SDS011;315;48.738;9.126;2024-03-02T01:39:58;14.13;;;11.60;;
665;SDS011;315;48.738;9.126;2024-03-02T01:42:24;12.20;;;10.50;;
665;SDS011;315;48.738;9.126;2024-03-02T01:44:49;13.47;;;10.50;;
665;SDS011;315;48.738;9.126;2024-03-02T01:47:15;12.63;;;10.27;;
665;SDS011;315;48.738;9.126;2024-03-02T01:49:41;13.00;;;10.67;;
665;SDS011;315;48.738;9.126;2024-03-02T01:52:07;12.57;;;11.30;;
665;SDS011;315;48.738;9.126;2024-03-02T01:54:32;14.07;;;11.77;;
665;SDS011;315;48.738;9.126;2024-03-02T01:56:58;11.93;;;10.23;;
665;SDS011;315;48.738;9.126;2024-03-02T01:59:24;14.00;;;11.50;;
665;SDS011;315;48.738;9.126;2024-03-02T02:01:51;15.77;;;11.70;;
665;SDS011;315;48.738;9.126;2024-03-02T02:04:16;10.93;;;9.80;;
665;SDS011;315;48.738;9.126;2024-03-02T02:06:43;15.60;;;11.87;;
665;SDS011;315;48.738;9.126;2024-03-02T02:09:09;11.60;;;10.43;;
665;SDS011;315;48.738;9.126;2024-03-02T02:11:35;15.70;;;11.03;;
665;SDS011;315;48.738;9.126;2024-03-02T02:14:00;14.97;;;11.83;;
665;SDS011;315;48.738;9.126;2024-03-02T02:16:26;22.03;;;17.97;;
665;SDS011;315;48.738;9.126;2024-03-02T02:18:51;17.30;;;12.97;;
665;SDS011;315;48.738;9.126;2024-03-02T02:21:17;12.70;;;10.00;;
665;SDS011;315;48.738;9.126;2024-03-02T02:23:42;12.97;;;11.30;;
665;SDS011;315;48.738;9.126;2024-03-02T02:26:11;13.77;;;11.33;;
665;SDS011;315;48.738;9.126;2024-03-02T02:28:37;12.33;;;11.00;;
665;SDS011;315;48.738;9.126;2024-03-02T02:31:03;13.80;;;10.83;;
665;SDS011;315;48.738;9.126;2024-03-02T02:33:28;12.93;;;11.40;;
665;SDS011;315;48.738;9.126;2024-03-02T02:35:54;12.17;;;10.87;;
665;SDS011;315;48.738;9.126;2024-03-02T02:38:19;19.33;;;14.57;;
665;SDS011;315;48.738;9.126;2024-03-02T02:40:45;15.73;;;13.70;;
665;SDS011;315;48.738;9.126;2024-03-02T02:43:11;16.27;;;12.50;;
665;SDS011;315;48.738;9.126;2024-03-02T02:45:36;14.10;;;11.87;;
665;SDS011;315;48.738;9.126;2024-03-02T02:48:02;18.70;;;12.30;;
665;SDS011;315;48.738;9.126;2024-03-02T02:50:28;15.13;;;12.00;;
665;SDS011;315;48.738;9.126;2024-03-02T02:52:53;19.00;;;14.00;;
665;SDS011;315;48.738;9.126;2024-03-02T02:55:19;18.30;;;14.50;;
665;SDS011;315;48.738;9.126;2024-03-02T02:57:44;15.17;;;11.97;;
665;SDS011;315;48.738;9.126;2024-03-02T03:00:12;16.33;;;12.10;;
665;SDS011;315;48.738;9.126;2024-03-02T03:02:41;13.57;;;11.73;;
665;SDS011;315;48.738;9.126;2024-03-02T03:05:08;17.03;;;13.47;;
665;SDS011;315;48.738;9.126;2024-03-02T03:07:35;15.43;;;12.60;;
665;SDS011;315;48.738;9.126;2024-03-02T03:10:01;18.43;;;13.63;;
665;SDS011;315;48.738;9.126;2024-03-02T03:12:28;16.00;;;12.20;;
665;SDS011;315;48.738;9.126;2024-03-02T03:14:54;14.10;;;11.40;;
665;SDS011;315;48.738;9.126;2024-03-02T03:17:20;19.10;;;13.60;;
665;SDS011;315;48.738;9.126;2024-03-02T03:19:46;15.77;;;12.50;;
665;SDS011;315;48.738;9.126;2024-03-02T03:22:12;17.23;;;13.13;;
665;SDS011;315;48.738;9.126;2024-03-02T03:24:38;18.57;;;13.57;;
665;SDS011;315;48.738;9.126;2024-03-02T03:27:04;16.77;;;14.03;;
665;SDS011;315;48.738;9.126;2024-03-02T03:29:29;18.77;;;13.10;;
665;SDS011;315;48.738;9.126;2024-03-02T03:31:55;19.47;;;13.70;;
665;SDS011;315;48.738;9.126;2024-03-02T03:34:20;16.97;;;12.50;;
665;SDS011;315;48.738;9.126;2024-03-02T03:36:46;18.40;;;13.43;;
665;SDS011;315;48.738;9.126;2024-03-02T03:39:11;16.50;;;13.53;;
665;SDS011;315;48.738;9.126;2024-03-02T03:41:37;17.00;;;12.50;;
665;SDS011;315;48.738;9.126;2024-03-02T03:44:02;16.97;;;13.07;;
665;SDS011;315;48.738;9.126;2024-03-02T03:46:28;17.50;;;12.83;;
665;SDS011;315;48.738;9.126;2024-03-02T03:48:54;18.83;;;13.03;;
665;SDS011;315;48.738;9.126;2024-03-02T03:51:21;17.17;;;13.30;;
665;SDS011;315;48.738;9.126;2024-03-02T03:53:47;15.63;;;12.87;;
665;SDS011;315;48.738;9.126;2024-03-02T03:56:13;18.07;;;13.40;;
665;SDS011;315;48.738;9.126;2024-03-02T03:58:39;16.70;;;13.03;;
665;SDS011;315;48.738;9.126;2024-03-02T04:01:04;16.23;;;13.80;;
665;SDS011;315;48.738;9.126;2024-03-02T04:03:30;18.07;;;13.53;;
665;SDS011;315;48.738;9.126;2024-03-02T04:05:55;17.30;;;13.37;;
665;SDS011;315;48.738;9.126;2024-03-02T04:08:21;20.83;;;14.73;;
665;SDS011;315;48.738;9.126;2024-03-02T04:10:47;17.90;;;13.70;;
665;SDS011;315;48.738;9.126;2024-03-02T04:13:12;18.60;;;13.23;;
665;SDS011;315;48.738;9.126;2024-03-02T04:15:38;18.23;;;13.07;;
665;SDS011;315;48.738;9.126;2024-03-02T04:18:03;19.10;;;14.40;;
665;SDS011;315;48.738;9.126;2024-03-02T04:20:29;16.83;;;14.17;;
665;SDS011;315;48.738;9.126;2024-03-02T04:22:55;18.07;;;14.40;;
665;SDS011;315;48.738;9.126;2024-03-02T04:25:20;18.00;;;12.57;;
665;SDS011;315;48.738;9.126;2024-03-02T04:27:46;19.03;;;13.80;;
665;SDS011;315;48.738;9.126;2024-03-02T04:30:12;17.37;;;13.43;;
665;SDS011;315;48.738;9.126;2024-03-02T04:32:38;18.03;;;13.30;;
665;SDS011;315;48.738;9.126;2024-03-02T04:35:04;18.50;;;13.30;;
665;SDS011;315;48.738;9.126;2024-03-02T04:37:31;17.20;;;12.97;;
665;SDS011;315;48.738;9.126;2024-03-02T04:39:59;19.10;;;13.87;;
665;SDS011;315;48.738;9.126;2024-03-02T04:42:24;15.13;;;12.70;;
665;SDS011;315;48.738;9.126;2024-03-02T04:44:50;18.17;;;15.53;;
665;SDS011;315;48.738;9.126;2024-03-02T04:47:15;18.10;;;13.53;;
665;SDS011;315;48.738;9.126;2024-03-02T04:49:41;20.43;;;13.60;;
665;SDS011;315;48.738;9.126;2024-03-02T04:52:06;15.80;;;13.20;;
665;SDS011;315;48.738;9.126;2024-03-02T04:54:32;19.70;;;14.57;;
665;SDS011;315;48.738;9.126;2024-03-02T04:56:59;22.70;;;15.30;;
665;SDS011;315;48.738;9.126;2024-03-02T04:59:26;19.67;;;14.17;;
665;SDS011;315;48.738;9.126;2024-03-02T05:01:51;19.77;;;13.90;;
665;SDS011;315;48.738;9.126;2024-03-02T05:04:17;18.47;;;13.90;;
665;SDS011;315;48.738;9.126;2024-03-02T05:06:43;18.93;;;14.87;;
665;SDS011;315;48.738;9.126;2024-03-02T05:09:09;16.00;;;13.83;;
665;SDS011;315;48.738;9.126;2024-03-02T05:11:34;18.97;;;12.93;;
665;SDS011;315;48.738;9.126;2024-03-02T05:14:03;19.30;;;14.40;;
665;SDS011;315;48.738;9.126;2024-03-02T05:16:29;19.37;;;14.63;;
665;SDS011;315;48.738;9.126;2024-03-02T05:18:57;22.30;;;14.83;;
665;SDS011;315;48.738;9.126;2024-03-02T05:21:23;22.17;;;15.70;;
665;SDS011;315;48.738;9.126;2024-03-02T05:23:48;17.63;;;14.53;;
665;SDS011;315;48.738;9.126;2024-03-02T05:26:14;18.93;;;13.93;;
665;SDS011;315;48.738;9.126;2024-03-02T05:28:39;26.50;;;15.53;;
665;SDS011;315;48.738;9.126;2024-03-02T05:31:05;22.50;;;15.40;;
665;SDS011;315;48.738;9.126;2024-03-02T05:33:31;20.50;;;15.20;;
665;SDS011;315;48.738;9.126;2024-03-02T05:35:58;24.50;;;16.67;;
665;SDS011;315;48.738;9.126;2024-03-02T05:38:24;24.10;;;15.10;;
665;SDS011;315;48.738;9.126;2024-03-02T05:40:49;21.73;;;14.30;;
665;SDS011;315;48.738;9.126;2024-03-02T05:43:15;20.30;;;14.33;;
665;SDS011;315;48.738;9.126;2024-03-02T05:45:40;19.77;;;15.00;;
665;SDS011;315;48.738;9.126;2024-03-02T05:48:06;20.57;;;15.00;;
665;SDS011;315;48.738;9.126;2024-03-02T05:50:32;19.23;;;14.53;;
665;SDS011;315;48.738;9.126;2024-03-02T05:52:58;19.77;;;15.17;;
665;SDS011;315;48.738;9.126;2024-03-02T05:55:24;20.67;;;14.70;;
665;SDS011;315;48.738;9.126;2024-03-02T05:57:49;16.93;;;12.70;;
665;SDS011;315;48.738;9.126;2024-03-02T06:00:41;21.80;;;13.13;;
665;SDS011;315;48.738;9.126;2024-03-02T06:03:06;24.57;;;14.53;;
665;SDS011;315;48.738;9.126;2024-03-02T06:05:32;18.10;;;13.97;;
665;SDS011;315;48.738;9.126;2024-03-02T06:07:58;20.00;;;14.37;;
665;SDS011;315;48.738;9.126;2024-03-02T06:10:23;16.87;;;13.37;;
665;SDS011;315;48.738;9.126;2024-03-02T06:12:49;19.37;;;15.20;;
665;SDS011;315;48.738;9.126;2024-03-02T06:15:15;17.73;;;13.67;;
665;SDS011;315;48.738;9.126;2024-03-02T06:17:40;25.37;;;17.27;;
665;SDS011;315;48.738;9.126;2024-03-02T06:20:06;23.80;;;14.60;;
665;SDS011;315;48.738;9.126;2024-03-02T06:22:33;17.80;;;13.33;;
665;SDS011;315;48.738;9.126;2024-03-02T06:24:59;20.70;;;13.93;;
665;SDS011;315;48.738;9.126;2024-03-02T06:27:25;18.23;;;13.27;;
665;SDS011;315;48.738;9.126;2024-03-02T06:29:50;23.03;;;14.90;;
665;SDS011;315;48.738;9.126;2024-03-02T06:32:16;23.00;;;14.53;;
665;SDS011;315;48.738;9.126;2024-03-02T06:34:42;21.20;;;14.80;;
665;SDS011;315;48.738;9.126;2024-03-02T06:37:07;20.57;;;14.80;;
665;SDS011;315;48.738;9.126;2024-03-02T06:39:33;19.23;;;13.70;;
665;SDS011;315;48.738;9.126;2024-03-02T06:41:59;26.67;;;15.30;;
665;SDS011;315;48.738;9.126;2024-03-02T06:44:25;17.50;;;13.87;;
665;SDS011;315;48.738;9.126;2024-03-02T06:46:50;20.67;;;15.57;;
665;SDS011;315;48.738;9.126;2024-03-02T06:49:16;20.93;;;14.23;;
665;SDS011;315;48.738;9.126;2024-03-02T06:51:43;18.83;;;14.40;;
665;SDS011;315;48.738;9.126;2024-03-02T06:54:08;16.50;;;12.77;;
665;SDS011;315;48.738;9.126;2024-03-02T06:56:34;22.40;;;15.70;;
665;SDS011;315;48.738;9.126;2024-03-02T06:59:00;19.30;;;12.47;;
665;SDS011;315;48.738;9.126;2024-03-02T07:01:26;18.90;;;13.97;;
665;SDS011;315;48.738;9.126;2024-03-02T07:03:53;18.50;;;12.50;;
665;SDS011;315;48.738;9.126;2024-03-02T07:06:18;20.17;;;12.43;;
665;SDS011;315;48.738;9.126;2024-03-02T07:08:44;17.17;;;13.27;;
665;SDS011;315;48.738;9.126;2024-03-02T07:11:09;20.17;;;13.47;;
665;SDS011;315;48.738;9.126;2024-03-02T07:13:35;22.07;;;14.57;;
665;SDS011;315;48.738;9.126;2024-03-02T07:16:00;17.33;;;12.50;;
665;SDS011;315;48.738;9.126;2024-03-02T07:18:29;17.13;;;13.30;;
665;SDS011;315;48.738;9.126;2024-03-02T07:20:55;15.97;;;11.33;;
665;SDS011;315;48.738;9.126;2024-03-02T07:23:24;13.20;;;11.80;;
665;SDS011;315;48.738;9.126;2024-03-02T07:25:52;16.80;;;12.77;;
665;SDS011;315;48.738;9.126;2024-03-02T07:28:21;18.40;;;12.67;;
665;SDS011;315;48.738;9.126;2024-03-02T07:31:02;18.80;;;13.50;;
665;SDS011;315;48.738;9.126;2024-03-02T07:33:29;16.07;;;12.03;;
665;SDS011;315;48.738;9.126;2024-03-02T07:35:55;17.70;;;10.67;;
665;SDS011;315;48.738;9.126;2024-03-02T07:38:21;15.17;;;11.23;;
665;SDS011;315;48.738;9.126;2024-03-02T07:40:47;15.40;;;11.03;;
665;SDS011;315;48.738;9.126;2024-03-02T07:43:16;15.00;;;11.07;;
665;SDS011;315;48.738;9.126;2024-03-02T07:45:43;15.10;;;10.90;;
665;SDS011;315;48.738;9.126;2024-03-02T07:48:08;16.17;;;10.33;;
665;SDS011;315;48.738;9.126;2024-03-02T07:50:34;14.13;;;11.20;;
665;SDS011;315;48.738;9.126;2024-03-02T07:53:03;16.90;;;12.30;;
665;SDS011;315;48.738;9.126;2024-03-02T07:55:29;15.00;;;11.80;;
665;SDS011;315;48.738;9.126;2024-03-02T07:57:55;15.30;;;11.57;;
665;SDS011;315;48.738;9.126;2024-03-02T08:00:21;15.17;;;11.67;;
665;SDS011;315;48.738;9.126;2024-03-02T08:02:47;12.00;;;10.70;;
665;SDS011;315;48.738;9.126;2024-03-02T08:05:13;12.87;;;10.77;;
665;SDS011;315;48.738;9.126;2024-03-02T08:07:39;15.67;;;11.93;;
665;SDS011;315;48.738;9.126;2024-03-02T08:10:05;14.13;;;11.37;;
665;SDS011;315;48.738;9.126;2024-03-02T08:12:30;12.43;;;10.50;;
665;SDS011;315;48.738;9.126;2024-03-02T08:14:56;14.40;;;11.33;;
665;SDS011;315;48.738;9.126;2024-03-02T08:17:21;12.90;;;9.77;;
665;SDS011;315;48.738;9.126;2024-03-02T08:19:47;12.80;;;11.07;;
665;SDS011;315;48.738;9.126;2024-03-02T08:22:14;13.97;;;10.03;;
665;SDS011;315;48.738;9.126;2024-03-02T08:24:40;15.33;;;9.73;;
665;SDS011;315;48.738;9.126;2024-03-02T08:27:06;11.53;;;9.27;;
665;SDS011;315;48.738;9.126;2024-03-02T08:29:31;9.40;;;8.50;;
665;SDS011;315;48.738;9.126;2024-03-02T08:31:57;12.77;;;9.53;;
665;SDS011;315;48.738;9.126;2024-03-02T08:34:22;9.83;;;7.70;;
665;SDS011;315;48.738;9.126;2024-03-02T08:36:48;8.73;;;7.83;;
665;SDS011;315;48.738;9.126;2024-03-02T08:39:14;9.07;;;7.97;;
665;SDS011;315;48.738;9.126;2024-03-02T08:41:44;10.57;;;8.37;;
665;SDS011;315;48.738;9.126;2024-03-02T08:44:11;8.77;;;7.83;;
665;SDS011;315;48.738;9.126;2024-03-02T08:46:38;8.17;;;7.27;;
665;SDS011;315;48.738;9.126;2024-03-02T08:49:04;10.87;;;9.20;;
665;SDS011;315;48.738;9.126;2024-03-02T08:51:30;8.37;;;7.57;;
665;SDS011;315;48.738;9.126;2024-03-02T08:53:56;9.07;;;8.17;;
665;SDS011;315;48.738;9.126;2024-03-02T08:56:22;9.00;;;8.10;;
665;SDS011;315;48.738;9.126;2024-03-02T08:58:49;9.27;;;6.90;;
665;SDS011;315;48.738;9.126;2024-03-02T09:01:15;8.37;;;7.50;;
665;SDS011;315;48.738;9.126;2024-03-02T09:03:41;7.50;;;6.80;;
665;SDS011;315;48.738;9.126;2024-03-02T09:06:09;6.77;;;6.17;;
665;SDS011;315;48.738;9.126;2024-03-02T09:08:35;8.13;;;7.43;;
665;SDS011;315;48.738;9.126;2024-03-02T09:11:01;7.40;;;6.80;;
665;SDS011;315;48.738;9.126;2024-03-02T09:13:31;7.60;;;5.90;;
665;SDS011;315;48.738;9.126;2024-03-02T09:15:57;7.20;;;6.50;;
665;SDS011;315;48.738;9.126;2024-03-02T09:18:23;7.03;;;6.27;;
665;SDS011;315;48.738;9.126;2024-03-02T09:20:48;6.43;;;5.83;;
665;SDS011;315;48.738;9.126;2024-03-02T09:23:14;7.17;;;6.57;;
665;SDS011;315;48.738;9.126;2024-03-02T09:25:39;5.90;;;5.40;;
665;SDS011;315;48.738;9.126;2024-03-02T09:28:05;5.90;;;5.40;;
665;SDS011;315;48.738;9.126;2024-03-02T09:30:32;6.30;;;5.60;;
665;SDS011;315;48.738;9.126;2024-03-02T09:32:57;6.13;;;5.53;;
665;SDS011;315;48.738;9.126;2024-03-02T09:35:23;6.33;;;5.83;;
665;SDS011;315;48.738;9.126;2024-03-02T09:37:48;6.90;;;5.07;;
665;SDS011;315;48.738;9.126;2024-03-02T09:40:14;6.17;;;5.60;;
665;SDS011;315;48.738;9.126;2024-03-02T09:42:40;6.27;;;5.77;;
665;SDS011;315;48.738;9.126;2024-03-02T09:45:06;5.53;;;5.13;;
665;SDS011;315;48.738;9.126;2024-03-02T09:47:32;8.63;;;5.27;;
665;SDS011;315;48.738;9.126;2024-03-02T09:49:58;6.10;;;5.50;;
665;SDS011;315;48.738;9.126;2024-03-02T09:52:24;6.20;;;5.03;;
665;SDS011;315;48.738;9.126;2024-03-02T09:54:49;6.20;;;5.70;;
665;SDS011;315;48.738;9.126;2024-03-02T09:57:15;5.77;;;5.27;;
665;SDS011;315;48.738;9.126;2024-03-02T09:59:41;5.17;;;4.67;;
665;SDS011;315;48.738;9.126;2024-03-02T10:02:06;4.90;;;4.50;;
665;SDS011;315;48.738;9.126;2024-03-02T10:04:33;4.03;;;3.73;;
665;SDS011;315;48.738;9.126;2024-03-02T10:07:16;4.63;;;3.73;;
665;SDS011;315;48.738;9.126;2024-03-02T10:09:43;4.70;;;4.30;;
665;SDS011;315;48.738;9.126;2024-03-02T10:12:11;4.40;;;4.10;;
665;SDS011;315;48.738;9.126;2024-03-02T10:14:38;4.37;;;4.07;;
665;SDS011;315;48.738;9.126;2024-03-02T10:17:08;4.30;;;3.90;;
665;SDS011;315;48.738;9.126;2024-03-02T10:19:35;4.73;;;4.40;;
665;SDS011;315;48.738;9.126;2024-03-02T10:22:02;5.53;;;4.53;;
665;SDS011;315;48.738;9.126;2024-03-02T10:24:38;4.60;;;4.30;;
665;SDS011;315;48.738;9.126;2024-03-02T10:27:07;4.53;;;4.23;;
665;SDS011;315;48.738;9.126;2024-03-02T10:29:40;5.60;;;5.20;;
665;SDS011;315;48.738;9.126;2024-03-02T10:32:08;4.87;;;4.47;;
665;SDS011;315;48.738;9.126;2024-03-02T10:34:35;4.30;;;3.90;;
665;SDS011;315;48.738;9.126;2024-03-02T10:37:01;4.20;;;3.90;;
665;SDS011;315;48.738;9.126;2024-03-02T10:39:26;4.50;;;4.10;;
665;SDS011;315;48.738;9.126;2024-03-02T10:41:53;3.50;;;3.30;;
665;SDS011;315;48.738;9.126;2024-03-02T10:44:20;3.30;;;3.10;;
665;SDS011;315;48.738;9.126;2024-03-02T10:46:47;3.60;;;3.30;;
665;SDS011;315;48.738;9.126;2024-03-02T10:49:15;3.60;;;3.40;;
665;SDS011;315;48.738;9.126;2024-03-02T10:51:42;3.50;;;3.20;;
665;SDS011;315;48.738;9.126;2024-03-02T10:54:08;2.57;;;2.43;;
665;SDS011;315;48.738;9.126;2024-03-02T10:56:34;3.27;;;3.07;;
665;SDS011;315;48.738;9.126;2024-03-02T10:59:21;3.93;;;3.13;;
665;SDS011;315;48.738;9.126;2024-03-02T11:01:58;10.70;;;6.93;;
665;SDS011;315;48.738;9.126;2024-03-02T11:04:25;4.37;;;4.07;;
665;SDS011;315;48.738;9.126;2024-03-02T11:06:54;3.43;;;3.23;;
665;SDS011;315;48.738;9.126;2024-03-02T11:09:29;4.77;;;3.60;;
665;SDS011;315;48.738;9.126;2024-03-02T11:14:34;4.10;;;3.80;;
665;SDS011;315;48.738;9.126;2024-03-02T11:17:05;4.67;;;4.27;;
665;SDS011;315;48.738;9.126;2024-03-02T11:19:31;3.70;;;3.40;;
665;SDS011;315;48.738;9.126;2024-03-02T11:21:59;2.40;;;2.30;;
665;SDS011;315;48.738;9.126;2024-03-02T11:27:01;4.60;;;3.90;;
665;SDS011;315;48.738;9.126;2024-03-02T11:32:05;4.30;;;3.90;;
665;SDS011;315;48.738;9.126;2024-03-02T11:34:38;3.20;;;2.97;;
665;SDS011;315;48.738;9.126;2024-03-02T11:37:10;2.10;;;2.00;;
665;SDS011;315;48.738;9.126;2024-03-02T11:39:35;2.50;;;2.40;;
665;SDS011;315;48.738;9.126;2024-03-02T11:42:05;2.90;;;2.70;;
665;SDS011;315;48.738;9.126;2024-03-02T11:44:36;3.47;;;2.73;;
665;SDS011;315;48.738;9.126;2024-03-02T11:47:05;3.00;;;1.77;;
665;SDS011;315;48.738;9.126;2024-03-02T11:49:50;2.30;;;2.20;;
665;SDS011;315;48.738;9.126;2024-03-02T11:52:17;2.63;;;2.43;;
665;SDS011;315;48.738;9.126;2024-03-02T11:54:46;2.70;;;2.50;;
665;SDS011;315;48.738;9.126;2024-03-02T11:57:14;5.30;;;4.90;;
665;SDS011;315;48.738;9.126;2024-03-02T11:59:41;2.33;;;2.20;;
665;SDS011;315;48.738;9.126;2024-03-02T12:02:07;2.03;;;1.93;;
665;SDS011;315;48.738;9.126;2024-03-02T12:04:42;2.20;;;1.73;;
665;SDS011;315;48.738;9.126;2024-03-02T12:07:08;2.17;;;1.93;;
665;SDS011;315;48.738;9.126;2024-03-02T12:09:34;1.67;;;1.57;;
665;SDS011;315;48.738;9.126;2024-03-02T12:12:03;1.80;;;1.70;;
665;SDS011;315;48.738;9.126;2024-03-02T12:14:36;1.87;;;1.77;;
665;SDS011;315;48.738;9.126;2024-03-02T12:17:02;2.40;;;2.07;;
665;SDS011;315;48.738;9.126;2024-03-02T12:19:29;1.80;;;1.70;;
665;SDS011;315;48.738;9.126;2024-03-02T12:21:56;2.33;;;2.07;;
665;SDS011;315;48.738;9.126;2024-03-02T12:24:22;1.90;;;1.80;;
665;SDS011;315;48.738;9.126;2024-03-02T12:26:49;2.53;;;2.33;;
665;SDS011;315;48.738;9.126;2024-03-02T12:29:21;2.20;;;2.10;;
665;SDS011;315;48.738;9.126;2024-03-02T12:31:48;2.00;;;1.90;;
665;SDS011;315;48.738;9.126;2024-03-02T12:34:14;1.90;;;1.80;;
665;SDS011;315;48.738;9.126;2024-03-02T12:36:40;2.37;;;2.17;;
665;SDS011;315;48.738;9.126;2024-03-02T12:39:07;3.40;;;2.90;;
665;SDS011;315;48.738;9.126;2024-03-02T12:41:36;2.50;;;2.30;;
665;SDS011;315;48.738;9.126;2024-03-02T12:44:05;2.20;;;2.10;;
665;SDS011;315;48.738;9.126;2024-03-02T12:46:31;2.17;;;2.07;;
665;SDS011;315;48.738;9.126;2024-03-02T12:49:05;2.30;;;2.20;;
665;SDS011;315;48.738;9.126;2024-03-02T12:51:34;2.47;;;2.27;;
665;SDS011;315;48.738;9.126;2024-03-02T12:54:00;3.07;;;2.50;;
665;SDS011;315;48.738;9.126;2024-03-02T12:56:26;4.63;;;2.47;;
665;SDS011;315;48.738;9.126;2024-03-02T12:58:55;2.40;;;2.30;;
665;SDS011;315;48.738;9.126;2024-03-02T13:01:20;2.73;;;2.20;;
665;SDS011;315;48.738;9.126;2024-03-02T13:03:49;2.23;;;2.03;;
665;SDS011;315;48.738;9.126;2024-03-02T13:06:20;3.10;;;2.67;;
665;SDS011;315;48.738;9.126;2024-03-02T13:08:46;2.53;;;2.43;;
665;SDS011;315;48.738;9.126;2024-03-02T13:11:12;3.17;;;2.97;;
665;SDS011;315;48.738;9.126;2024-03-02T13:13:41;2.67;;;2.50;;
665;SDS011;315;48.738;9.126;2024-03-02T13:16:09;2.70;;;2.37;;
665;SDS011;315;48.738;9.126;2024-03-02T13:18:36;2.80;;;2.70;;
665;SDS011;315;48.738;9.126;2024-03-02T13:21:03;3.00;;;2.57;;
665;SDS011;315;48.738;9.126;2024-03-02T13:23:28;3.00;;;2.80;;
665;SDS011;315;48.738;9.126;2024-03-02T13:25:56;2.97;;;2.77;;
665;SDS011;315;48.738;9.126;2024-03-02T13:28:23;2.53;;;2.43;;
665;SDS011;315;48.738;9.126;2024-03-02T13:30:49;2.73;;;2.53;;
665;SDS011;315;48.738;9.126;2024-03-02T13:33:14;2.67;;;2.57;;
665;SDS011;315;48.738;9.126;2024-03-02T13:35:40;2.30;;;2.20;;
665;SDS011;315;48.738;9.126;2024-03-02T13:38:05;2.50;;;2.30;;
665;SDS011;315;48.738;9.126;2024-03-02T13:40:31;2.40;;;2.30;;
665;SDS011;315;48.738;9.126;2024-03-02T13:43:00;2.43;;;2.23;;
665;SDS011;315;48.738;9.126;2024-03-02T13:45:27;2.00;;;1.90;;
665;SDS011;315;48.738;9.126;2024-03-02T13:47:52;2.30;;;2.20;;
665;SDS011;315;48.738;9.126;2024-03-02T13:50:18;2.70;;;2.50;;
665;SDS011;315;48.738;9.126;2024-03-02T13:52:44;2.90;;;2.70;;
665;SDS011;315;48.738;9.126;2024-03-02T13:55:10;2.93;;;2.73;;
665;SDS011;315;48.738;9.126;2024-03-02T13:57:35;2.80;;;2.60;;
665;SDS011;315;48.738;9.126;2024-03-02T14:00:01;3.30;;;3.10;;
665;SDS011;315;48.738;9.126;2024-03-02T14:02:28;2.40;;;2.30;;
665;SDS011;315;48.738;9.126;2024-03-02T14:04:54;3.10;;;2.90;;
665;SDS011;315;48.738;9.126;2024-03-02T14:07:19;2.50;;;2.40;;
665;SDS011;315;48.738;9.126;2024-03-02T14:09:45;2.40;;;2.30;;
665;SDS011;315;48.738;9.126;2024-03-02T14:12:11;2.67;;;2.50;;
665;SDS011;315;48.738;9.126;2024-03-02T14:14:38;2.47;;;2.37;;
665;SDS011;315;48.738;9.126;2024-03-02T14:17:04;2.50;;;2.30;;
665;SDS011;315;48.738;9.126;2024-03-02T14:19:31;4.27;;;2.00;;
665;SDS011;315;48.738;9.126;2024-03-02T14:21:57;2.30;;;2.10;;
665;SDS011;315;48.738;9.126;2024-03-02T14:24:23;3.30;;;2.00;;
665;SDS011;315;48.738;9.126;2024-03-02T14:26:50;2.60;;;2.27;;
665;SDS011;315;48.738;9.126;2024-03-02T14:29:19;2.10;;;2.00;;
665;SDS011;315;48.738;9.126;2024-03-02T14:31:44;2.20;;;2.10;;
665;SDS011;315;48.738;9.126;2024-03-02T14:34:13;3.73;;;3.43;;
665;SDS011;315;48.738;9.126;2024-03-02T14:36:39;2.03;;;1.93;;
665;SDS011;315;48.738;9.126;2024-03-02T14:39:05;2.50;;;2.13;;
665;SDS011;315;48.738;9.126;2024-03-02T14:41:35;1.93;;;1.83;;
665;SDS011;315;48.738;9.126;2024-03-02T14:44:00;2.27;;;2.17;;
665;SDS011;315;48.738;9.126;2024-03-02T14:46:26;2.50;;;2.40;;
665;SDS011;315;48.738;9.126;2024-03-02T14:48:52;2.50;;;2.30;;
665;SDS011;315;48.738;9.126;2024-03-02T14:51:17;2.70;;;2.50;;
665;SDS011;315;48.738;9.126;2024-03-02T14:53:43;2.03;;;1.93;;
665;SDS011;315;48.738;9.126;2024-03-02T14:56:08;2.87;;;2.70;;
665;SDS011;315;48.738;9.126;2024-03-02T14:58:34;2.43;;;2.33;;
665;SDS011;315;48.738;9.126;2024-03-02T15:01:01;2.60;;;1.70;;
665;SDS011;315;48.738;9.126;2024-03-02T15:03:28;1.77;;;1.67;;
665;SDS011;315;48.738;9.126;2024-03-02T15:05:53;2.43;;;2.13;;
665;SDS011;315;48.738;9.126;2024-03-02T15:08:19;1.90;;;1.60;;
665;SDS011;315;48.738;9.126;2024-03-02T15:10:44;1.97;;;1.87;;
665;SDS011;315;48.738;9.126;2024-03-02T15:13:10;2.20;;;2.10;;
665;SDS011;315;48.738;9.126;2024-03-02T15:15:36;1.53;;;1.43;;
665;SDS011;315;48.738;9.126;2024-03-02T15:18:01;3.57;;;2.23;;
665;SDS011;315;48.738;9.126;2024-03-02T15:20:28;2.30;;;2.13;;
665;SDS011;315;48.738;9.126;2024-03-02T15:22:54;1.70;;;1.60;;
665;SDS011;315;48.738;9.126;2024-03-02T15:25:19;2.00;;;1.90;;
665;SDS011;315;48.738;9.126;2024-03-02T15:27:45;1.83;;;1.73;;
665;SDS011;315;48.738;9.126;2024-03-02T15:30:11;2.50;;;2.30;;
665;SDS011;315;48.738;9.126;2024-03-02T15:32:36;2.17;;;1.97;;
665;SDS011;315;48.738;9.126;2024-03-02T15:35:04;1.73;;;1.63;;
665;SDS011;315;48.738;9.126;2024-03-02T15:37:30;2.30;;;2.10;;
665;SDS011;315;48.738;9.126;2024-03-02T15:39:55;4.40;;;2.30;;